createdAt,value
2022-11-25T00:00:52.252Z,100948.78
2022-11-25T00:03:49.455Z,100948.28
2022-11-25T00:06:47.090Z,100944.44
2022-11-25T00:09:44.278Z,100939.50
2022-11-25T00:12:40.959Z,100941.16
2022-11-25T00:15:38.104Z,100943.81
2022-11-25T00:18:35.698Z,100936.03
2022-11-25T00:21:34.127Z,100937.88
2022-11-25T00:24:31.286Z,100929.59
2022-11-25T00:27:28.413Z,100924.13
2022-11-25T00:30:26.053Z,100921.97
2022-11-25T00:33:24.350Z,100909.63
2022-11-25T00:36:30.476Z,100912.78
2022-11-25T00:39:28.822Z,100914.25
2022-11-25T00:42:44.360Z,100912.28
2022-11-25T00:45:41.700Z,100911.59
2022-11-25T00:48:39.108Z,100914.72
2022-11-25T00:51:36.119Z,100900.50
2022-11-25T00:54:33.204Z,100908.09
2022-11-25T00:57:30.196Z,100911.06
2022-11-25T01:00:27.226Z,100908.28
2022-11-25T01:03:24.292Z,100916.19
2022-11-25T01:06:23.335Z,100920.81
2022-11-25T01:09:20.187Z,100912.59
2022-11-25T01:12:16.877Z,100912.25
2022-11-25T01:15:14.322Z,100899.88
2022-11-25T01:18:10.917Z,100908.13
2022-11-25T01:21:09.493Z,100901.03
2022-11-25T01:24:07.411Z,100906.00
2022-11-25T01:27:04.986Z,100904.34
2022-11-25T01:30:02.154Z,100900.72
2022-11-25T01:33:00.165Z,100898.59
2022-11-25T01:35:57.056Z,100902.69
2022-11-25T01:38:55.895Z,100907.81
2022-11-25T01:41:53.352Z,100909.97
2022-11-25T01:45:26.562Z,100900.88
2022-11-25T01:48:27.688Z,100900.38
2022-11-25T01:51:30.070Z,100894.28
2022-11-25T01:54:28.384Z,100884.88
2022-11-25T01:57:37.382Z,100889.00
2022-11-25T02:00:34.125Z,100886.19
2022-11-25T02:03:41.306Z,100891.28
2022-11-25T02:06:49.868Z,100893.47
2022-11-25T02:09:47.051Z,100876.44
2022-11-25T02:12:45.158Z,100888.13
2022-11-25T02:15:42.410Z,100880.22
2022-11-25T02:18:39.074Z,100873.94
2022-11-25T02:21:47.245Z,100880.34
2022-11-25T02:24:48.050Z,100881.53
2022-11-25T02:27:48.069Z,100887.13
2022-11-25T02:30:46.228Z,100891.91
2022-11-25T02:33:44.190Z,100890.59
2022-11-25T02:36:41.416Z,100889.59
2022-11-25T02:39:38.152Z,100880.00
2022-11-25T02:42:35.087Z,100888.09
2022-11-25T02:45:52.163Z,100877.84
2022-11-25T02:49:09.294Z,100893.75
2022-11-25T02:52:06.970Z,100880.00
2022-11-25T02:55:04.519Z,100884.81
2022-11-25T02:58:02.427Z,100886.63
2022-11-25T03:00:59.031Z,100879.38
2022-11-25T03:03:55.998Z,100877.84
2022-11-25T03:06:53.173Z,100870.78
2022-11-25T03:09:50.230Z,100870.59
2022-11-25T03:12:47.450Z,100868.94
2022-11-25T03:15:45.207Z,100871.91
2022-11-25T03:18:42.272Z,100864.16
2022-11-25T03:21:39.347Z,100864.34
2022-11-25T03:24:36.609Z,100867.63
2022-11-25T03:27:34.466Z,100865.28
2022-11-25T03:30:32.402Z,100861.34
2022-11-25T03:33:32.403Z,100868.13
2022-11-25T03:36:29.545Z,100870.75
2022-11-25T03:39:27.249Z,100875.72
2022-11-25T03:42:24.143Z,100880.00
2022-11-25T03:45:21.428Z,100878.53
2022-11-25T03:48:18.416Z,100875.38
2022-11-25T03:51:15.394Z,100878.66
2022-11-25T03:54:14.037Z,100872.06
2022-11-25T03:57:37.346Z,100860.69
2022-11-25T04:00:34.016Z,100868.91
2022-11-25T04:03:34.350Z,100871.72
2022-11-25T04:06:32.141Z,100870.75
2022-11-25T04:09:31.011Z,100875.88
2022-11-25T04:12:48.442Z,100867.59
2022-11-25T04:16:19.122Z,100878.03
2022-11-25T04:19:16.246Z,100871.72
2022-11-25T04:22:13.206Z,100865.47
2022-11-25T04:25:14.352Z,100874.22
2022-11-25T04:28:11.371Z,100876.88
2022-11-25T04:31:08.699Z,100871.56
2022-11-25T04:34:09.276Z,100874.19
2022-11-25T04:37:06.376Z,100873.22
2022-11-25T04:40:03.641Z,100878.69
2022-11-25T04:43:07.603Z,100888.22
2022-11-25T04:46:19.722Z,100889.06
2022-11-25T04:49:20.053Z,100888.72
2022-11-25T04:52:17.176Z,100891.34
2022-11-25T04:55:14.027Z,100895.97
2022-11-25T04:58:11.892Z,100887.00
2022-11-25T05:01:10.208Z,100894.97
2022-11-25T05:04:11.359Z,100889.47
2022-11-25T05:07:09.396Z,100900.25
2022-11-25T05:10:07.927Z,100899.56
2022-11-25T05:13:12.134Z,100906.50
2022-11-25T05:16:09.355Z,100907.31
2022-11-25T05:19:06.186Z,100901.88
2022-11-25T05:22:03.091Z,100911.66
2022-11-25T05:25:00.556Z,100910.38
2022-11-25T05:27:58.188Z,100906.16
2022-11-25T05:30:55.067Z,100909.03
2022-11-25T05:33:52.513Z,100908.41
2022-11-25T05:36:51.989Z,100911.19
2022-11-25T05:39:49.433Z,100908.06
2022-11-25T05:43:03.479Z,100915.84
2022-11-25T05:46:06.686Z,100907.41
2022-11-25T05:49:05.471Z,100903.63
2022-11-25T05:52:03.189Z,100897.00
2022-11-25T05:55:05.446Z,100904.25
2022-11-25T05:58:04.804Z,100913.16
2022-11-25T06:01:07.155Z,100900.91
2022-11-25T06:04:04.618Z,100906.13
2022-11-25T06:07:02.124Z,100912.91
2022-11-25T06:10:03.100Z,100905.72
2022-11-25T06:13:02.391Z,100904.56
2022-11-25T06:16:03.499Z,100904.13
2022-11-25T06:19:06.883Z,100909.50
2022-11-25T06:22:04.833Z,100903.59
2022-11-25T06:25:04.088Z,100908.03
2022-11-25T06:28:12.890Z,100904.06
2022-11-25T06:31:17.720Z,100907.75
2022-11-25T06:34:47.455Z,100916.97
2022-11-25T06:37:59.518Z,100916.00
2022-11-25T06:41:00.588Z,100921.06
2022-11-25T06:43:58.311Z,100931.78
2022-11-25T06:46:55.467Z,100927.16
2022-11-25T06:49:52.408Z,100924.09
2022-11-25T06:52:49.279Z,100935.31
2022-11-25T06:55:46.272Z,100940.72
2022-11-25T06:58:43.535Z,100947.22
2022-11-25T07:01:40.754Z,100954.97
2022-11-25T07:04:38.542Z,100961.41
2022-11-25T07:07:35.261Z,100969.16
2022-11-25T07:10:33.847Z,100968.16
2022-11-25T07:13:31.444Z,100979.63
2022-11-25T07:16:29.145Z,100987.34
2022-11-25T07:19:26.377Z,100985.88
2022-11-25T07:22:23.208Z,101009.03
2022-11-25T07:25:20.298Z,101011.88
2022-11-25T07:28:17.336Z,101010.13
2022-11-25T07:31:27.792Z,101017.81
2022-11-25T07:34:25.753Z,101021.41
2022-11-25T07:37:23.486Z,101030.44
2022-11-25T07:40:20.433Z,101025.97
2022-11-25T07:43:17.376Z,101030.59
2022-11-25T07:46:26.255Z,101036.84
2022-11-25T07:49:27.330Z,101035.59
2022-11-25T07:52:24.534Z,101038.44
2022-11-25T07:55:21.677Z,101045.78
2022-11-25T07:58:18.471Z,101049.97
2022-11-25T08:01:15.793Z,101057.88
2022-11-25T08:04:19.440Z,101055.66
2022-11-25T08:07:16.464Z,101053.91
2022-11-25T08:10:13.576Z,101060.41
2022-11-25T08:13:10.609Z,101066.00
2022-11-25T08:16:08.210Z,101063.44
2022-11-25T08:19:07.495Z,101064.47
2022-11-25T08:22:04.683Z,101062.69
2022-11-25T08:25:02.097Z,101075.53
2022-11-25T08:27:59.871Z,101076.84
2022-11-25T08:31:08.775Z,101080.56
2022-11-25T08:34:06.781Z,101071.00
2022-11-25T08:37:04.356Z,101066.72
2022-11-25T08:40:01.445Z,101065.38
2022-11-25T08:42:58.489Z,101064.75
2022-11-25T08:45:55.670Z,101075.63
2022-11-25T08:48:52.528Z,101083.28
2022-11-25T08:51:49.797Z,101074.94
2022-11-25T08:54:47.686Z,101086.50
2022-11-25T08:57:44.710Z,101090.19
2022-11-25T09:00:42.953Z,101084.75
2022-11-25T09:03:42.445Z,101084.59
2022-11-25T09:06:39.547Z,101098.19
2022-11-25T09:09:37.006Z,101099.81
2022-11-25T09:12:34.483Z,101102.28
2022-11-25T09:15:32.630Z,101105.88
2022-11-25T09:18:30.512Z,101112.25
2022-11-25T09:21:27.666Z,101111.31
2022-11-25T09:24:24.420Z,101118.94
2022-11-25T09:27:21.668Z,101117.63
2022-11-25T09:30:18.668Z,101121.97
2022-11-25T09:33:15.613Z,101126.19
2022-11-25T09:36:13.234Z,101126.69
2022-11-25T09:39:10.228Z,101138.91
2022-11-25T09:42:38.018Z,101135.31
2022-11-25T09:46:39.591Z,101131.06
2022-11-25T09:49:56.660Z,101134.09
2022-11-25T09:53:15.717Z,101130.19
2022-11-25T09:56:31.077Z,101139.53
2022-11-25T09:59:49.679Z,101141.13
2022-11-25T10:03:01.442Z,101147.38
2022-11-25T10:06:06.150Z,101143.31
2022-11-25T10:09:17.115Z,101147.16
2022-11-25T10:12:23.626Z,101146.91
2022-11-25T10:15:47.280Z,101151.84
2022-11-25T10:18:48.103Z,101145.94
2022-11-25T10:21:46.444Z,101157.56
2022-11-25T10:24:44.214Z,101157.97
2022-11-25T10:27:57.583Z,101157.06
2022-11-25T10:31:17.478Z,101160.25
2022-11-25T10:34:37.330Z,101172.25
2022-11-25T10:37:38.901Z,101178.03
2022-11-25T10:40:36.554Z,101178.22
2022-11-25T10:43:33.896Z,101184.09
2022-11-25T10:47:11.017Z,101195.28
2022-11-25T10:50:16.172Z,101178.06
2022-11-25T10:53:14.221Z,101188.31
2022-11-25T10:56:17.496Z,101191.94
2022-11-25T10:59:34.283Z,101195.72
2022-11-25T11:02:38.549Z,101197.78
2022-11-25T11:05:35.427Z,101196.41
2022-11-25T11:08:39.734Z,101204.03
2022-11-25T11:11:47.306Z,101208.00
2022-11-25T11:14:44.948Z,101224.97
2022-11-25T11:17:42.901Z,101216.59
2022-11-25T11:20:44.959Z,101223.66
2022-11-25T11:23:53.621Z,101232.47
2022-11-25T11:27:03.798Z,101223.72
2022-11-25T11:30:11.064Z,101231.22
2022-11-25T11:33:28.615Z,101226.91
2022-11-25T11:36:44.367Z,101225.72
2022-11-25T11:40:15.552Z,101221.50
2022-11-25T11:43:37.693Z,101233.91
2022-11-25T11:46:47.052Z,101237.06
2022-11-25T11:50:19.768Z,101232.72
2022-11-25T11:53:23.596Z,101242.44
2022-11-25T11:56:55.768Z,101250.63
2022-11-25T11:59:53.525Z,101257.50
2022-11-25T12:03:13.300Z,101249.16
2022-11-25T12:06:10.422Z,101249.91
2022-11-25T12:09:16.851Z,101243.78
2022-11-25T12:12:15.517Z,101247.00
2022-11-25T12:15:17.345Z,101247.38
2022-11-25T12:18:23.454Z,101263.38
2022-11-25T12:21:42.474Z,101259.50
2022-11-25T12:25:02.580Z,101272.00
2022-11-25T12:28:08.926Z,101268.81
2022-11-25T12:31:17.186Z,101277.31
2022-11-25T12:34:31.649Z,101268.91
2022-11-25T12:37:36.418Z,101272.50
2022-11-25T12:40:48.044Z,101281.59
2022-11-25T12:43:55.670Z,101272.50
2022-11-25T12:46:54.020Z,101272.69
2022-11-25T12:49:51.915Z,101268.34
2022-11-25T12:53:12.560Z,101278.63
2022-11-25T12:56:18.566Z,101266.13
2022-11-25T12:59:40.057Z,101273.06
2022-11-25T13:03:01.992Z,101279.94
2022-11-25T13:06:04.782Z,101287.69
2022-11-25T13:09:16.083Z,101301.78
2022-11-25T13:12:41.500Z,101301.13
2022-11-25T13:15:49.227Z,101291.53
2022-11-25T13:18:46.613Z,101290.66
2022-11-25T13:21:55.754Z,101297.88
2022-11-25T13:24:52.569Z,101299.16
2022-11-25T13:27:56.732Z,101306.97
2022-11-25T13:30:53.524Z,101310.84
2022-11-25T13:34:09.195Z,101316.50
2022-11-25T13:37:36.644Z,101312.41
2022-11-25T13:40:37.882Z,101324.78
2022-11-25T13:43:34.531Z,101320.66
2022-11-25T13:46:44.817Z,101334.16
2022-11-25T13:49:49.801Z,101338.44
2022-11-25T13:52:59.658Z,101334.34
2022-11-25T13:56:16.046Z,101332.63
2022-11-25T13:59:17.155Z,101343.13
2022-11-25T14:02:31.837Z,101352.69
2022-11-25T14:05:28.388Z,101353.06
2022-11-25T14:09:05.014Z,101351.63
2022-11-25T14:12:56.246Z,101365.56
2022-11-25T14:16:35.483Z,101362.13
2022-11-25T14:19:52.714Z,101362.25
2022-11-25T14:23:22.584Z,101357.41
2022-11-25T14:26:49.235Z,101367.31
2022-11-25T14:29:59.793Z,101370.03
2022-11-25T14:32:59.731Z,101375.94
2022-11-25T14:36:00.798Z,101380.69
2022-11-25T14:39:02.073Z,101377.94
2022-11-25T14:42:32.385Z,101388.69
2022-11-25T14:45:33.674Z,101402.75
2022-11-25T14:48:30.568Z,101396.25
2022-11-25T14:51:33.595Z,101405.78
2022-11-25T14:54:30.651Z,101405.91
2022-11-25T14:57:29.486Z,101396.34
2022-11-25T15:00:27.475Z,101406.25
2022-11-25T15:03:25.125Z,101405.53
2022-11-25T15:06:22.919Z,101409.25
2022-11-25T15:09:36.965Z,101399.59
2022-11-25T15:12:34.900Z,101399.03
2022-11-25T15:15:31.797Z,101418.16
2022-11-25T15:18:29.062Z,101432.41
2022-11-25T15:21:34.173Z,101450.03
2022-11-25T15:24:32.769Z,101448.22
2022-11-25T15:27:29.718Z,101454.13
2022-11-25T15:30:29.195Z,101455.25
2022-11-25T15:33:26.707Z,101463.19
2022-11-25T15:36:24.101Z,101467.41
2022-11-25T15:39:20.884Z,101471.53
2022-11-25T15:42:22.471Z,101486.50
2022-11-25T15:45:20.831Z,101483.13
2022-11-25T15:48:29.141Z,101492.69
2022-11-25T15:51:44.596Z,101483.50
2022-11-25T15:54:45.097Z,101494.91
2022-11-25T15:57:46.230Z,101496.88
2022-11-25T16:01:19.484Z,101508.59
2022-11-25T16:04:20.762Z,101520.97
2022-11-25T16:07:24.011Z,101528.97
2022-11-25T16:10:28.688Z,101535.94
2022-11-25T16:13:29.723Z,101545.31
2022-11-25T16:16:30.127Z,101533.59
2022-11-25T16:19:37.601Z,101543.16
2022-11-25T16:22:35.873Z,101534.09
2022-11-25T16:25:32.812Z,101548.84
2022-11-25T16:28:29.832Z,101562.09
2022-11-25T16:31:27.131Z,101554.41
2022-11-25T16:34:25.650Z,101563.13
2022-11-25T16:37:23.382Z,101564.44
2022-11-25T16:40:20.914Z,101552.66
2022-11-25T16:43:23.520Z,101568.16
2022-11-25T16:46:38.979Z,101564.13
2022-11-25T16:49:36.209Z,101584.75
2022-11-25T16:52:33.981Z,101589.66
2022-11-25T16:55:30.926Z,101593.63
2022-11-25T16:58:27.787Z,101597.59
2022-11-25T17:01:26.483Z,101600.88
2022-11-25T17:04:23.819Z,101616.97
2022-11-25T17:07:38.392Z,101622.78
2022-11-25T17:10:35.680Z,101629.16
2022-11-25T17:13:34.055Z,101635.50
2022-11-25T17:16:30.777Z,101633.47
2022-11-25T17:19:28.522Z,101623.50
2022-11-25T17:22:27.116Z,101627.22
2022-11-25T17:25:23.992Z,101630.78
2022-11-25T17:28:21.086Z,101644.63
2022-11-25T17:31:18.041Z,101642.41
2022-11-25T17:34:16.284Z,101658.94
2022-11-25T17:37:22.681Z,101645.41
2022-11-25T17:40:19.757Z,101656.56
2022-11-25T17:43:18.304Z,101672.53
2022-11-25T17:46:16.822Z,101670.22
2022-11-25T17:49:14.823Z,101677.34
2022-11-25T17:52:12.136Z,101679.84
2022-11-25T17:55:09.109Z,101690.56
2022-11-25T17:58:06.353Z,101695.50
2022-11-25T18:01:04.025Z,101696.13
2022-11-25T18:04:09.990Z,101705.50
2022-11-25T18:07:10.937Z,101700.22
2022-11-25T18:10:08.975Z,101705.69
2022-11-25T18:13:05.822Z,101705.09
2022-11-25T18:16:02.954Z,101714.88
2022-11-25T18:18:59.956Z,101716.50
2022-11-25T18:22:00.805Z,101723.16
2022-11-25T18:24:58.219Z,101722.31
2022-11-25T18:27:56.546Z,101725.84
2022-11-25T18:30:54.638Z,101729.19
2022-11-25T18:33:51.968Z,101733.53
2022-11-25T18:36:49.997Z,101735.88
2022-11-25T18:39:49.146Z,101749.13
2022-11-25T18:42:48.840Z,101747.66
2022-11-25T18:45:46.441Z,101756.97
2022-11-25T18:48:44.013Z,101758.13
2022-11-25T18:51:41.108Z,101758.66
2022-11-25T18:54:38.637Z,101757.16
2022-11-25T18:57:36.056Z,101766.13
2022-11-25T19:00:33.542Z,101772.47
2022-11-25T19:03:30.824Z,101775.97
2022-11-25T19:06:29.304Z,101785.13
2022-11-25T19:09:27.268Z,101793.75
2022-11-25T19:12:25.170Z,101797.41
2022-11-25T19:15:23.730Z,101806.53
2022-11-25T19:18:24.683Z,101819.50
2022-11-25T19:21:22.140Z,101819.47
2022-11-25T19:24:19.337Z,101825.00
2022-11-25T19:27:21.681Z,101835.63
2022-11-25T19:30:23.800Z,101833.63
2022-11-25T19:33:27.892Z,101849.59
2022-11-25T19:36:26.542Z,101848.91
2022-11-25T19:39:23.920Z,101848.88
2022-11-25T19:42:21.339Z,101855.72
2022-11-25T19:45:20.130Z,101863.00
2022-11-25T19:48:18.386Z,101865.69
2022-11-25T19:51:20.549Z,101865.34
2022-11-25T19:54:18.674Z,101877.31
2022-11-25T19:57:17.111Z,101884.97
2022-11-25T20:00:15.022Z,101895.44
2022-11-25T20:03:23.595Z,101887.28
2022-11-25T20:06:21.091Z,101893.28
2022-11-25T20:09:18.055Z,101901.75
2022-11-25T20:12:21.069Z,101913.72
2022-11-25T20:15:18.000Z,101922.22
2022-11-25T20:18:20.044Z,101915.09
2022-11-25T20:21:28.265Z,101925.53
2022-11-25T20:24:27.045Z,101914.88
2022-11-25T20:27:26.293Z,101926.69
2022-11-25T20:30:24.687Z,101939.50
2022-11-25T20:33:24.739Z,101945.50
2022-11-25T20:36:23.521Z,101949.94
2022-11-25T20:39:21.002Z,101961.25
2022-11-25T20:42:18.142Z,101962.63
2022-11-25T20:45:20.120Z,101967.59
2022-11-25T20:48:17.288Z,101970.25
2022-11-25T20:51:20.003Z,101971.25
2022-11-25T20:54:17.730Z,101975.56
2022-11-25T20:57:14.883Z,101975.03
2022-11-25T21:00:23.288Z,101973.56
2022-11-25T21:03:19.993Z,101968.59
2022-11-25T21:06:26.709Z,101977.84
2022-11-25T21:09:26.732Z,101985.19
2022-11-25T21:12:23.795Z,101988.16
2022-11-25T21:15:22.906Z,101975.81
2022-11-25T21:18:20.528Z,101983.13
2022-11-25T21:21:31.821Z,101993.81
2022-11-25T21:24:32.286Z,102010.59
2022-11-25T21:27:29.024Z,102009.44
2022-11-25T21:30:28.222Z,102019.44
2022-11-25T21:33:24.869Z,102016.59
2022-11-25T21:36:23.467Z,102013.09
2022-11-25T21:39:30.568Z,102010.28
2022-11-25T21:42:28.190Z,102030.22
2022-11-25T21:45:25.032Z,102019.22
2022-11-25T21:48:25.827Z,102024.00
2022-11-25T21:51:24.415Z,102040.13
2022-11-25T21:54:22.044Z,102035.34
2022-11-25T21:57:21.854Z,102035.22
2022-11-25T22:00:21.921Z,102050.41
2022-11-25T22:03:19.455Z,102053.47
2022-11-25T22:06:29.650Z,102041.06
2022-11-25T22:09:27.388Z,102047.78
2022-11-25T22:12:30.064Z,102043.06
2022-11-25T22:15:27.199Z,102052.94
2022-11-25T22:18:32.144Z,102069.13
2022-11-25T22:21:29.076Z,102079.97
2022-11-25T22:24:25.912Z,102070.97
2022-11-25T22:27:28.399Z,102082.63
2022-11-25T22:30:26.054Z,102088.13
2022-11-25T22:33:29.944Z,102075.03
2022-11-25T22:36:37.275Z,102093.81
2022-11-25T22:39:34.150Z,102093.16
2022-11-25T22:42:31.243Z,102090.59
2022-11-25T22:45:31.130Z,102096.13
2022-11-25T22:48:35.211Z,102107.34
2022-11-25T22:51:32.083Z,102103.03
2022-11-25T22:54:29.024Z,102109.22
2022-11-25T22:57:25.899Z,102116.31
2022-11-25T23:00:25.339Z,102124.84
2022-11-25T23:03:33.928Z,102123.56
2022-11-25T23:06:31.173Z,102129.97
2022-11-25T23:09:28.232Z,102128.44
2022-11-25T23:12:25.906Z,102133.19
2022-11-25T23:15:23.334Z,102131.00
2022-11-25T23:18:26.294Z,102133.03
2022-11-25T23:21:24.082Z,102141.22
2022-11-25T23:24:21.175Z,102132.88
2022-11-25T23:27:18.332Z,102138.09
2022-11-25T23:30:19.078Z,102146.78
2022-11-25T23:33:31.317Z,102143.19
2022-11-25T23:36:30.184Z,102143.00
2022-11-25T23:39:27.059Z,102145.63
2022-11-25T23:42:24.734Z,102144.50
2022-11-25T23:45:25.991Z,102156.38
2022-11-25T23:48:24.900Z,102165.22
2022-11-25T23:51:22.940Z,102168.75
2022-11-25T23:54:20.155Z,102164.47
2022-11-25T23:57:18.208Z,102158.19
